createdAt,value
2023-05-07T00:00:41.274Z,101242.13
2023-05-07T00:03:12.577Z,101237.72
2023-05-07T00:05:42.516Z,101243.88
2023-05-07T00:08:11.305Z,101232.47
2023-05-07T00:10:41.215Z,101237.78
2023-05-07T00:13:10.103Z,101228.94
2023-05-07T00:15:38.959Z,101232.44
2023-05-07T00:18:07.879Z,101235.97
2023-05-07T00:20:38.106Z,101236.84
2023-05-07T00:23:06.910Z,101234.19
2023-05-07T00:25:35.726Z,101238.59
2023-05-07T00:28:04.938Z,101240.38
2023-05-07T00:30:34.062Z,101244.78
2023-05-07T00:33:02.942Z,101241.28
2023-05-07T00:35:31.913Z,101250.94
2023-05-07T00:38:02.033Z,101246.56
2023-05-07T00:40:30.776Z,101249.19
2023-05-07T00:43:01.020Z,101245.63
2023-05-07T00:45:30.944Z,101250.94
2023-05-07T00:48:02.157Z,101244.75
2023-05-07T00:50:32.122Z,101245.69
2023-05-07T00:53:03.159Z,101173.69
2023-05-07T00:55:32.690Z,101250.94
2023-05-07T00:58:01.547Z,101252.72
2023-05-07T01:00:30.467Z,101249.16
2023-05-07T01:02:59.657Z,101257.97
2023-05-07T01:05:29.866Z,101244.75
2023-05-07T01:08:01.705Z,101250.94
2023-05-07T01:10:32.201Z,101165.75
2023-05-07T01:13:02.419Z,101251.81
2023-05-07T01:15:31.367Z,101246.53
2023-05-07T01:18:00.673Z,101253.53
2023-05-07T01:20:35.030Z,101258.84
2023-05-07T01:23:07.323Z,101250.91
2023-05-07T01:25:38.574Z,101257.09
2023-05-07T01:28:07.942Z,101256.19
2023-05-07T01:30:43.064Z,101262.38
2023-05-07T01:33:15.836Z,101263.25
2023-05-07T01:35:48.535Z,101265.03
2023-05-07T01:38:20.004Z,101253.59
2023-05-07T01:40:49.048Z,101256.19
2023-05-07T01:43:18.104Z,101259.75
2023-05-07T01:45:50.038Z,101257.09
2023-05-07T01:48:19.751Z,101247.41
2023-05-07T01:50:50.039Z,101260.59
2023-05-07T01:53:20.157Z,101261.47
2023-05-07T01:55:48.898Z,101262.38
2023-05-07T01:58:18.961Z,101260.59
2023-05-07T02:00:50.709Z,101265.88
2023-05-07T02:03:19.576Z,101265.03
2023-05-07T02:05:57.295Z,101264.13
2023-05-07T02:08:34.074Z,101266.78
2023-05-07T02:11:03.194Z,101267.63
2023-05-07T02:13:34.386Z,101265.00
2023-05-07T02:16:03.557Z,101266.75
2023-05-07T02:18:32.901Z,101270.31
2023-05-07T02:21:01.745Z,101260.59
2023-05-07T02:23:30.753Z,101269.41
2023-05-07T02:26:01.536Z,101261.50
2023-05-07T02:28:30.974Z,101254.47
2023-05-07T02:31:04.793Z,101265.03
2023-05-07T02:33:35.901Z,101257.97
2023-05-07T02:36:10.540Z,101266.75
2023-05-07T02:38:45.920Z,101263.25
2023-05-07T02:41:15.979Z,101267.66
2023-05-07T02:43:44.776Z,101264.13
2023-05-07T02:46:14.246Z,101275.56
2023-05-07T02:48:48.237Z,101277.34
2023-05-07T02:51:19.001Z,101276.47
2023-05-07T02:53:47.968Z,101284.34
2023-05-07T02:56:18.140Z,101277.34
2023-05-07T02:58:46.965Z,101272.91
2023-05-07T03:01:17.106Z,101272.88
2023-05-07T03:03:53.388Z,101271.97
2023-05-07T03:06:22.269Z,101276.41
2023-05-07T03:08:51.035Z,101271.16
2023-05-07T03:11:21.254Z,101273.78
2023-05-07T03:13:50.553Z,101272.03
2023-05-07T03:16:21.880Z,101278.19
2023-05-07T03:18:51.319Z,101276.47
2023-05-07T03:21:20.314Z,101280.84
2023-05-07T03:23:49.034Z,101282.63
2023-05-07T03:26:20.969Z,101287.91
2023-05-07T03:28:52.141Z,101286.13
2023-05-07T03:31:21.236Z,101281.75
2023-05-07T03:33:54.247Z,101296.72
2023-05-07T03:36:23.596Z,101296.72
2023-05-07T03:38:53.023Z,101302.00
2023-05-07T03:41:26.757Z,101299.34
2023-05-07T03:43:55.498Z,101298.47
2023-05-07T03:46:27.174Z,101299.34
2023-05-07T03:48:56.134Z,101307.28
2023-05-07T03:51:24.927Z,101308.13
2023-05-07T03:53:54.004Z,101309.91
2023-05-07T03:56:27.610Z,101308.16
2023-05-07T03:58:57.882Z,101314.31
2023-05-07T04:01:26.809Z,101309.91
2023-05-07T04:03:56.498Z,101315.19
2023-05-07T04:06:25.817Z,101310.78
2023-05-07T04:08:55.494Z,101316.06
2023-05-07T04:11:26.446Z,101322.22
2023-05-07T04:13:55.420Z,101327.50
2023-05-07T04:16:26.014Z,101323.13
2023-05-07T04:18:54.832Z,101326.63
2023-05-07T04:21:24.165Z,101318.72
2023-05-07T04:23:53.983Z,101332.78
2023-05-07T04:26:24.320Z,101323.09
2023-05-07T04:28:54.618Z,101327.50
2023-05-07T04:31:23.600Z,101328.38
2023-05-07T04:33:55.557Z,101332.75
2023-05-07T04:36:27.196Z,101338.91
2023-05-07T04:39:01.360Z,101339.78
2023-05-07T04:41:30.234Z,101346.84
2023-05-07T04:44:01.056Z,101356.50
2023-05-07T04:46:32.780Z,101352.97
2023-05-07T04:49:01.833Z,101362.66
2023-05-07T04:51:30.628Z,101352.13
2023-05-07T04:53:59.690Z,101357.41
2023-05-07T04:56:31.300Z,101366.19
2023-05-07T04:59:02.829Z,101360.03
2023-05-07T05:01:32.511Z,101364.41
2023-05-07T05:04:02.291Z,101371.44
2023-05-07T05:06:31.786Z,101374.94
2023-05-07T05:09:01.352Z,101374.06
2023-05-07T05:11:32.364Z,101371.47
2023-05-07T05:14:06.658Z,101374.97
2023-05-07T05:16:35.579Z,101371.41
2023-05-07T05:19:05.099Z,101379.34
2023-05-07T05:21:36.525Z,101382.84
2023-05-07T05:24:10.309Z,101385.44
2023-05-07T05:26:39.064Z,101387.19
2023-05-07T05:29:09.552Z,101388.94
2023-05-07T05:31:42.780Z,101386.31
2023-05-07T05:34:12.416Z,101384.56
2023-05-07T05:36:43.629Z,101387.19
2023-05-07T05:39:12.541Z,101396.84
2023-05-07T05:41:41.448Z,101391.63
2023-05-07T05:44:12.186Z,101407.47
2023-05-07T05:46:41.525Z,101408.38
2023-05-07T05:49:10.709Z,101403.00
2023-05-07T05:51:40.582Z,101397.63
2023-05-07T05:54:09.523Z,101406.41
2023-05-07T05:56:38.952Z,101395.72
2023-05-07T05:59:07.890Z,101406.19
2023-05-07T06:01:38.102Z,101400.78
2023-05-07T06:04:07.540Z,101401.66
2023-05-07T06:06:37.099Z,101398.06
2023-05-07T06:09:06.420Z,101393.94
2023-05-07T06:11:42.969Z,101403.59
2023-05-07T06:14:13.009Z,101403.53
2023-05-07T06:16:43.190Z,101401.03
2023-05-07T06:19:12.733Z,101409.75
2023-05-07T06:21:42.749Z,101398.25
2023-05-07T06:24:11.910Z,101407.84
2023-05-07T06:26:41.779Z,101418.31
2023-05-07T06:29:11.059Z,101423.53
2023-05-07T06:31:43.593Z,101421.69
2023-05-07T06:34:15.257Z,101426.16
2023-05-07T06:36:44.572Z,101420.81
2023-05-07T06:39:39.477Z,101426.22
2023-05-07T06:42:08.286Z,101431.31
2023-05-07T06:44:42.920Z,101426.47
2023-05-07T06:47:16.516Z,101431.06
2023-05-07T06:49:47.903Z,101441.50
2023-05-07T06:52:19.530Z,101440.53
2023-05-07T06:54:50.398Z,101451.75
2023-05-07T06:57:21.075Z,101452.69
2023-05-07T06:59:49.898Z,101453.38
2023-05-07T07:02:20.305Z,101454.88
2023-05-07T07:04:51.502Z,101463.53
2023-05-07T07:07:20.356Z,101472.50
2023-05-07T07:09:52.529Z,101472.41
2023-05-07T07:12:22.069Z,101476.31
2023-05-07T07:14:50.883Z,101480.09
2023-05-07T07:17:21.160Z,101478.16
2023-05-07T07:20:14.954Z,101476.41
2023-05-07T07:22:46.584Z,101475.88
2023-05-07T07:25:18.360Z,101480.03
2023-05-07T07:27:47.840Z,101477.38
2023-05-07T07:30:17.721Z,101469.53
2023-05-07T07:32:51.350Z,101470.56
2023-05-07T07:35:20.314Z,101470.47
2023-05-07T07:37:51.622Z,101476.50
2023-05-07T07:40:21.642Z,101464.69
2023-05-07T07:42:50.889Z,101470.88
2023-05-07T07:45:20.029Z,101474.69
2023-05-07T07:47:52.254Z,101473.34
2023-05-07T07:50:36.026Z,101475.41
2023-05-07T07:53:12.841Z,101480.69
2023-05-07T07:55:42.159Z,101495.28
2023-05-07T07:58:13.839Z,101488.00
2023-05-07T08:00:43.340Z,101494.16
2023-05-07T08:03:15.484Z,101489.00
2023-05-07T08:05:52.125Z,101486.47
2023-05-07T08:08:21.318Z,101491.72
2023-05-07T08:10:51.582Z,101495.13
2023-05-07T08:13:28.265Z,101498.66
2023-05-07T08:15:57.099Z,101496.91
2023-05-07T08:18:29.942Z,101496.69
2023-05-07T08:21:00.685Z,101492.75
2023-05-07T08:23:29.603Z,101506.06
2023-05-07T08:25:59.098Z,101513.69
2023-05-07T08:28:28.164Z,101514.03
2023-05-07T08:30:57.652Z,101510.25
2023-05-07T08:33:28.011Z,101519.53
2023-05-07T08:35:56.965Z,101520.78
2023-05-07T08:38:25.816Z,101519.66
2023-05-07T08:40:54.751Z,101524.94
2023-05-07T08:43:28.709Z,101524.13
2023-05-07T08:46:02.465Z,101517.91
2023-05-07T08:48:36.273Z,101529.91
2023-05-07T08:51:17.486Z,101519.66
2023-05-07T08:53:49.772Z,101524.69
2023-05-07T08:56:24.021Z,101529.91
2023-05-07T08:58:57.540Z,101529.13
2023-05-07T09:01:28.231Z,101536.34
2023-05-07T09:03:59.748Z,101536.78
2023-05-07T09:06:31.124Z,101532.84
2023-05-07T09:09:02.181Z,101528.38
2023-05-07T09:11:33.168Z,101532.81
2023-05-07T09:14:03.840Z,101532.78
2023-05-07T09:16:38.263Z,101533.69
2023-05-07T09:19:08.500Z,101535.53
2023-05-07T09:21:38.292Z,101530.34
2023-05-07T09:24:10.945Z,101542.53
2023-05-07T09:26:43.257Z,101544.38
2023-05-07T09:29:13.485Z,101549.75
2023-05-07T09:31:42.823Z,101555.16
2023-05-07T09:34:16.558Z,101554.13
2023-05-07T09:36:48.867Z,101545.69
2023-05-07T09:39:20.131Z,101557.28
2023-05-07T09:41:50.402Z,101557.97
2023-05-07T09:44:27.870Z,101568.56
2023-05-07T09:46:57.560Z,101551.78
2023-05-07T09:49:38.232Z,101558.78
2023-05-07T09:52:12.999Z,101554.63
2023-05-07T09:54:49.350Z,101550.78
2023-05-07T09:57:21.500Z,101558.66
2023-05-07T09:59:56.602Z,101556.16
2023-05-07T10:02:27.910Z,101554.34
2023-05-07T10:05:01.486Z,101565.88
2023-05-07T10:07:33.946Z,101568.22
2023-05-07T10:10:09.674Z,101562.81
2023-05-07T10:12:43.524Z,101566.84
2023-05-07T10:15:18.936Z,101579.00
2023-05-07T10:17:53.767Z,101574.72
2023-05-07T10:20:24.350Z,101572.03
2023-05-07T10:22:57.147Z,101587.91
2023-05-07T10:25:33.647Z,101576.69
2023-05-07T10:28:13.199Z,101579.97
2023-05-07T10:30:58.075Z,101576.97
2023-05-07T10:33:31.465Z,101567.84
2023-05-07T10:36:05.436Z,101572.06
2023-05-07T10:38:35.280Z,101577.56
2023-05-07T10:41:06.762Z,101578.72
2023-05-07T10:43:44.045Z,101580.59
2023-05-07T10:46:20.803Z,101583.00
2023-05-07T10:49:12.635Z,101582.53
2023-05-07T10:52:15.947Z,101596.13
2023-05-07T10:55:22.837Z,101585.53
2023-05-07T10:58:32.007Z,101586.91
2023-05-07T11:01:53.906Z,101589.72
2023-05-07T11:04:29.006Z,101586.50
2023-05-07T11:07:30.434Z,101595.66
2023-05-07T11:10:13.904Z,101588.47
2023-05-07T11:12:58.131Z,101593.66
2023-05-07T11:15:38.992Z,101555.53
2023-05-07T11:18:16.491Z,101584.84
2023-05-07T11:21:05.519Z,101585.59
2023-05-07T11:24:03.225Z,101583.97
2023-05-07T11:26:47.780Z,101582.38
2023-05-07T11:29:21.544Z,101584.84
2023-05-07T11:31:53.931Z,101587.66
2023-05-07T11:34:25.696Z,101583.22
2023-05-07T11:36:57.457Z,101587.69
2023-05-07T11:39:40.064Z,101582.81
2023-05-07T11:42:09.169Z,101590.59
2023-05-07T11:44:49.223Z,101592.25
2023-05-07T11:47:21.382Z,101597.25
2023-05-07T11:49:52.209Z,101595.22
2023-05-07T11:52:23.504Z,101580.22
2023-05-07T11:54:56.801Z,101596.00
2023-05-07T11:57:26.735Z,101592.25
2023-05-07T11:59:56.537Z,101589.91
2023-05-07T12:02:26.186Z,101594.91
2023-05-07T12:04:55.891Z,101598.38
2023-05-07T12:07:26.379Z,101601.94
2023-05-07T12:09:57.011Z,101593.53
2023-05-07T12:12:25.844Z,101587.69
2023-05-07T12:14:55.422Z,101588.53
2023-05-07T12:17:53.231Z,101596.03
2023-05-07T12:20:24.463Z,101593.44
2023-05-07T12:22:57.312Z,101604.03
2023-05-07T12:25:30.531Z,101604.19
2023-05-07T12:28:03.575Z,101610.09
2023-05-07T12:30:32.495Z,101605.91
2023-05-07T12:33:01.369Z,101614.03
2023-05-07T12:35:30.635Z,101614.34
2023-05-07T12:38:03.822Z,101612.22
2023-05-07T12:40:40.816Z,101627.66
2023-05-07T12:43:10.008Z,101611.91
2023-05-07T12:45:41.721Z,101614.56
2023-05-07T12:48:12.734Z,101625.44
2023-05-07T12:50:41.825Z,101622.88
2023-05-07T12:53:12.318Z,101618.91
2023-05-07T12:55:46.832Z,101624.59
2023-05-07T12:58:19.813Z,101609.53
2023-05-07T13:00:51.340Z,101612.09
2023-05-07T13:03:33.990Z,101601.72
2023-05-07T13:06:05.117Z,101612.81
2023-05-07T13:08:35.147Z,101606.38
2023-05-07T13:11:06.590Z,101607.88
2023-05-07T13:13:38.221Z,101602.78
2023-05-07T13:16:09.557Z,101611.66
2023-05-07T13:18:40.796Z,101617.84
2023-05-07T13:21:14.225Z,101611.94
2023-05-07T13:23:43.125Z,101612.94
2023-05-07T13:26:25.693Z,101616.22
2023-05-07T13:28:56.171Z,101611.16
2023-05-07T13:31:25.005Z,101610.81
2023-05-07T13:33:54.134Z,101615.50
2023-05-07T13:36:25.028Z,101610.50
2023-05-07T13:38:54.017Z,101606.66
2023-05-07T13:41:24.216Z,101606.75
2023-05-07T13:43:53.061Z,101611.53
2023-05-07T13:46:21.906Z,101611.06
2023-05-07T13:48:52.113Z,101611.03
2023-05-07T13:51:20.942Z,101615.50
2023-05-07T13:53:49.827Z,101616.75
2023-05-07T13:56:18.716Z,101612.78
2023-05-07T13:58:59.392Z,101611.31
2023-05-07T14:01:29.960Z,101617.09
2023-05-07T14:04:00.555Z,101614.53
2023-05-07T14:06:29.442Z,101609.69
2023-05-07T14:08:59.225Z,101611.75
2023-05-07T14:11:28.242Z,101614.84
2023-05-07T14:14:00.824Z,101608.56
2023-05-07T14:16:29.851Z,101618.13
2023-05-07T14:18:58.980Z,101614.63
2023-05-07T14:21:27.780Z,101611.44
2023-05-07T14:23:57.641Z,101609.91
2023-05-07T14:26:28.133Z,101611.19
2023-05-07T14:28:59.408Z,101612.31
2023-05-07T14:31:28.572Z,101609.31
2023-05-07T14:34:00.104Z,101602.81
2023-05-07T14:36:28.951Z,101608.28
2023-05-07T14:39:00.159Z,101610.06
2023-05-07T14:41:29.457Z,101618.22
2023-05-07T14:43:59.975Z,101615.75
2023-05-07T14:46:29.972Z,101615.47
2023-05-07T14:48:59.591Z,101617.50
2023-05-07T14:51:29.457Z,101617.06
2023-05-07T14:53:58.579Z,101618.03
2023-05-07T14:56:27.572Z,101625.94
2023-05-07T14:58:56.440Z,101632.22
2023-05-07T15:01:29.069Z,101618.50
2023-05-07T15:03:58.404Z,101615.19
2023-05-07T15:06:28.299Z,101612.53
2023-05-07T15:08:57.105Z,101613.13
2023-05-07T15:11:26.020Z,101618.03
2023-05-07T15:13:54.897Z,101623.69
2023-05-07T15:16:25.190Z,101624.41
2023-05-07T15:18:54.093Z,101616.28
2023-05-07T15:21:23.021Z,101616.09
2023-05-07T15:23:51.853Z,101621.56
2023-05-07T15:26:23.387Z,101622.69
2023-05-07T15:28:52.228Z,101613.56
2023-05-07T15:31:21.681Z,101624.28
2023-05-07T15:33:52.979Z,101618.72
2023-05-07T15:36:25.553Z,101616.97
2023-05-07T15:41:23.607Z,101618.50
2023-05-07T15:47:24.218Z,101620.66
2023-05-07T15:50:21.484Z,101616.59
2023-05-07T15:52:55.028Z,101620.19
2023-05-07T15:58:21.509Z,101622.25
2023-05-07T16:00:57.665Z,101619.22
2023-05-07T16:03:32.693Z,101621.78
2023-05-07T16:06:03.110Z,101612.56
2023-05-07T16:08:33.981Z,101615.06
2023-05-07T16:11:02.782Z,101611.78
2023-05-07T16:13:31.581Z,101610.25
2023-05-07T16:16:00.528Z,101609.38
2023-05-07T16:18:32.068Z,101607.34
2023-05-07T16:21:06.320Z,101619.56
2023-05-07T16:23:35.086Z,101625.34
2023-05-07T16:29:28.896Z,101618.19
2023-05-07T16:32:22.490Z,101621.56
2023-05-07T16:34:51.409Z,101623.28
2023-05-07T16:37:21.662Z,101622.38
2023-05-07T16:39:52.681Z,101626.31
2023-05-07T16:42:22.707Z,101626.50
2023-05-07T16:44:51.541Z,101626.47
2023-05-07T16:47:20.477Z,101625.44
2023-05-07T16:49:50.506Z,101631.66
2023-05-07T16:52:22.028Z,101621.88
2023-05-07T16:55:04.008Z,101622.63
2023-05-07T16:57:32.887Z,101624.44
2023-05-07T17:00:01.734Z,101611.31
2023-05-07T17:02:30.843Z,101618.47
2023-05-07T17:04:59.683Z,101622.09
2023-05-07T17:07:29.975Z,101623.97
2023-05-07T17:09:58.892Z,101636.56
2023-05-07T17:12:35.449Z,101632.28
2023-05-07T17:15:14.711Z,101632.06
2023-05-07T17:17:43.640Z,101631.41
2023-05-07T17:20:15.288Z,101633.28
2023-05-07T17:22:58.459Z,101637.91
2023-05-07T17:25:27.271Z,101639.81
2023-05-07T17:27:57.264Z,101634.69
2023-05-07T17:30:39.363Z,101643.84
2023-05-07T17:33:20.164Z,101649.25
2023-05-07T17:35:50.255Z,101657.28
2023-05-07T17:38:20.490Z,101657.22
2023-05-07T17:40:49.622Z,101647.50
2023-05-07T17:43:24.553Z,101651.94
2023-05-07T17:45:53.604Z,101660.78
2023-05-07T17:48:23.776Z,101659.91
2023-05-07T17:50:52.705Z,101660.88
2023-05-07T17:53:24.663Z,101664.41
2023-05-07T17:55:54.768Z,101662.69
2023-05-07T17:58:25.723Z,101669.81
2023-05-07T18:00:56.095Z,101669.84
2023-05-07T18:03:25.442Z,101674.44
2023-05-07T18:05:54.510Z,101671.84
2023-05-07T18:08:29.390Z,101675.41
2023-05-07T18:10:58.272Z,101682.53
2023-05-07T18:13:27.238Z,101679.91
2023-05-07T18:16:03.328Z,101679.06
2023-05-07T18:18:32.557Z,101675.75
2023-05-07T18:21:04.873Z,101681.09
2023-05-07T18:23:50.505Z,101680.28
2023-05-07T18:26:19.881Z,101682.06
2023-05-07T18:28:53.744Z,101672.47
2023-05-07T18:31:37.572Z,101683.06
2023-05-07T18:34:22.134Z,101678.69
2023-05-07T18:36:58.970Z,101680.47
2023-05-07T18:39:42.152Z,101677.81
2023-05-07T18:42:11.050Z,101673.41
2023-05-07T18:44:40.332Z,101683.09
2023-05-07T18:47:09.778Z,101685.72
2023-05-07T18:49:38.927Z,101688.34
2023-05-07T18:52:07.769Z,101686.59
2023-05-07T18:54:41.364Z,101688.31
2023-05-07T18:57:12.773Z,101692.72
2023-05-07T18:59:43.965Z,101694.47
2023-05-07T19:02:14.630Z,101696.22
2023-05-07T19:04:43.618Z,101703.25
2023-05-07T19:07:13.174Z,101712.09
2023-05-07T19:09:53.593Z,101712.13
2023-05-07T19:12:30.280Z,101709.47
2023-05-07T19:14:59.038Z,101711.25
2023-05-07T19:17:27.780Z,101719.16
2023-05-07T19:19:56.491Z,101720.97
2023-05-07T19:22:25.818Z,101716.53
2023-05-07T19:24:55.867Z,101711.22
2023-05-07T19:27:24.678Z,101727.03
2023-05-07T19:29:53.413Z,101711.22
2023-05-07T19:32:22.392Z,101719.06
2023-05-07T19:34:51.232Z,101721.69
2023-05-07T19:37:22.891Z,101721.72
2023-05-07T19:39:51.651Z,101721.72
2023-05-07T19:42:21.754Z,101730.53
2023-05-07T19:44:50.603Z,101724.41
2023-05-07T19:47:19.575Z,101725.28
2023-05-07T19:49:48.567Z,101723.47
2023-05-07T19:52:17.355Z,101725.22
2023-05-07T19:54:46.067Z,101728.72
2023-05-07T19:57:15.407Z,101733.03
2023-05-07T19:59:47.329Z,101730.34
2023-05-07T20:02:16.553Z,101740.00
2023-05-07T20:04:45.385Z,101729.41
2023-05-07T20:07:14.120Z,101740.81
2023-05-07T20:09:43.523Z,101732.88
2023-05-07T20:12:12.276Z,101740.75
2023-05-07T20:14:41.168Z,101739.81
2023-05-07T20:17:11.631Z,101739.00
2023-05-07T20:19:40.592Z,101730.19
2023-05-07T20:22:09.322Z,101736.31
2023-05-07T20:24:41.214Z,101737.16
2023-05-07T20:27:10.796Z,101742.44
2023-05-07T20:29:39.554Z,101745.94
2023-05-07T20:32:08.411Z,101738.88
2023-05-07T20:34:38.524Z,101746.78
2023-05-07T20:37:07.461Z,101742.31
2023-05-07T20:39:36.225Z,101728.13
2023-05-07T20:42:05.280Z,101730.78
2023-05-07T20:44:34.995Z,101721.06
2023-05-07T20:47:03.887Z,101730.72
2023-05-07T20:49:32.587Z,101733.34
2023-05-07T20:52:02.648Z,101732.44
2023-05-07T20:54:31.929Z,101742.94
2023-05-07T20:57:00.611Z,101751.66
2023-05-07T20:59:29.312Z,101741.88
2023-05-07T21:01:58.162Z,101745.41
2023-05-07T21:04:27.049Z,101743.66
2023-05-07T21:06:55.617Z,101740.06
2023-05-07T21:09:26.205Z,101736.50
2023-05-07T21:11:55.148Z,101744.31
2023-05-07T21:14:23.886Z,101742.50
2023-05-07T21:16:52.664Z,101743.25
2023-05-07T21:19:21.424Z,101753.72
2023-05-07T21:21:50.117Z,101753.75
2023-05-07T21:24:19.006Z,101746.66
2023-05-07T21:26:49.143Z,101750.06
2023-05-07T21:29:17.889Z,101753.53
2023-05-07T21:31:46.732Z,101757.06
2023-05-07T21:34:15.657Z,101756.13
2023-05-07T21:36:44.414Z,101759.59
2023-05-07T21:39:13.204Z,101746.44
2023-05-07T21:41:41.974Z,101751.69
2023-05-07T21:44:12.340Z,101746.34
2023-05-07T21:46:41.228Z,101751.75
2023-05-07T21:49:10.396Z,101748.16
2023-05-07T21:51:42.912Z,101748.06
2023-05-07T21:54:15.841Z,101758.44
2023-05-07T21:56:48.129Z,101755.72
2023-05-07T21:59:19.727Z,101756.53
2023-05-07T22:01:48.540Z,101756.53
2023-05-07T22:04:17.246Z,101753.94
2023-05-07T22:06:45.975Z,101747.78
2023-05-07T22:09:14.692Z,101750.47
2023-05-07T22:11:43.410Z,101762.81
2023-05-07T22:14:12.110Z,101755.69
2023-05-07T22:16:42.246Z,101758.19
2023-05-07T22:19:11.084Z,101765.09
2023-05-07T22:21:39.859Z,101755.47
2023-05-07T22:24:09.221Z,101756.22
2023-05-07T22:26:38.024Z,101758.88
2023-05-07T22:29:06.781Z,101749.09
2023-05-07T22:31:37.812Z,101750.84
2023-05-07T22:34:08.029Z,101752.59
2023-05-07T22:36:36.846Z,101748.16
2023-05-07T22:39:07.235Z,101754.25
2023-05-07T22:41:36.032Z,101751.63
2023-05-07T22:44:05.320Z,101750.59
2023-05-07T22:46:34.608Z,101760.19
2023-05-07T22:49:04.073Z,101758.34
2023-05-07T22:51:34.244Z,101754.03
2023-05-07T22:54:03.007Z,101754.78
2023-05-07T22:56:31.744Z,101758.97
2023-05-07T22:59:00.464Z,101751.03
2023-05-07T23:01:34.148Z,101753.56
2023-05-07T23:04:03.065Z,101761.28
2023-05-07T23:06:33.094Z,101758.66
2023-05-07T23:09:01.851Z,101758.53
2023-05-07T23:11:30.605Z,101759.50
2023-05-07T23:13:59.317Z,101757.75
2023-05-07T23:16:28.785Z,101753.34
2023-05-07T23:18:57.884Z,101748.91
2023-05-07T23:21:27.060Z,101754.97
2023-05-07T23:23:57.204Z,101744.44
2023-05-07T23:26:28.882Z,101746.19
2023-05-07T23:28:57.647Z,101754.16
2023-05-07T23:31:26.402Z,101752.19
2023-05-07T23:33:55.084Z,101753.84
2023-05-07T23:36:29.622Z,101762.50
2023-05-07T23:38:59.723Z,101758.81
2023-05-07T23:41:28.463Z,101764.94
2023-05-07T23:43:57.237Z,101752.00
2023-05-07T23:46:26.917Z,101761.59
2023-05-07T23:48:55.656Z,101759.66
2023-05-07T23:51:24.362Z,101763.91
2023-05-07T23:53:53.119Z,101756.78
2023-05-07T23:56:23.876Z,101763.06
2023-05-07T23:58:52.752Z,101761.28
